sensor_id;sensor_type;location;lat;lon;timestamp;pressure;altitude;pressure_sealevel;temperature;humidity
71126;BME280;58785;55.566;38.058;2023-08-17T00:01:56;101043.63;;;17.11;81.75
71126;BME280;58785;55.566;38.058;2023-08-17T00:04:22;101043.63;;;17.11;81.82
71126;BME280;58785;55.566;38.058;2023-08-17T00:06:47;101047.19;;;17.11;81.88
71126;BME280;58785;55.566;38.058;2023-08-17T00:09:13;101047.19;;;17.11;81.95
71126;BME280;58785;55.566;38.058;2023-08-17T00:11:39;101049.69;;;17.13;81.82
71126;BME280;58785;55.566;38.058;2023-08-17T00:14:05;101042.81;;;17.10;81.91
71126;BME280;58785;55.566;38.058;2023-08-17T00:16:31;101052.09;;;17.16;81.99
71126;BME280;58785;55.566;38.058;2023-08-17T00:18:56;101050.22;;;17.16;82.10
71126;BME280;58785;55.566;38.058;2023-08-17T00:21:23;101053.75;;;17.17;82.19
71126;BME280;58785;55.566;38.058;2023-08-17T00:23:48;101047.53;;;17.08;82.12
71126;BME280;58785;55.566;38.058;2023-08-17T00:26:15;101055.25;;;17.11;82.20
71126;BME280;58785;55.566;38.058;2023-08-17T00:28:40;101054.41;;;17.11;82.02
71126;BME280;58785;55.566;38.058;2023-08-17T00:31:06;101048.34;;;17.09;82.31
71126;BME280;58785;55.566;38.058;2023-08-17T00:33:32;101056.94;;;17.12;82.24
71126;BME280;58785;55.566;38.058;2023-08-17T00:35:57;101050.03;;;17.10;82.38
71126;BME280;58785;55.566;38.058;2023-08-17T00:38:24;101052.91;;;17.08;82.46
71126;BME280;58785;55.566;38.058;2023-08-17T00:40:49;101047.88;;;17.05;82.35
71126;BME280;58785;55.566;38.058;2023-08-17T00:43:15;101048.88;;;17.04;82.47
71126;BME280;58785;55.566;38.058;2023-08-17T00:45:41;101046.34;;;17.11;82.59
71126;BME280;58785;55.566;38.058;2023-08-17T00:48:07;101054.41;;;17.11;82.61
71126;BME280;58785;55.566;38.058;2023-08-17T00:50:34;101049.88;;;17.11;82.80
71126;BME280;58785;55.566;38.058;2023-08-17T00:53:02;101059.50;;;17.14;82.81
71126;BME280;58785;55.566;38.058;2023-08-17T00:55:28;101061.31;;;17.13;82.81
71126;BME280;58785;55.566;38.058;2023-08-17T00:57:55;101067.41;;;17.15;82.75
71126;BME280;58785;55.566;38.058;2023-08-17T01:00:23;101058.97;;;17.10;83.01
71126;BME280;58785;55.566;38.058;2023-08-17T01:02:50;101065.19;;;17.11;82.91
71126;BME280;58785;55.566;38.058;2023-08-17T01:05:16;101065.38;;;17.09;82.89
71126;BME280;58785;55.566;38.058;2023-08-17T01:07:42;101062.00;;;17.07;82.77
71126;BME280;58785;55.566;38.058;2023-08-17T01:10:09;101066.72;;;17.05;83.06
71126;BME280;58785;55.566;38.058;2023-08-17T01:15:14;101064.34;;;17.02;82.79
71126;BME280;58785;55.566;38.058;2023-08-17T01:18:00;101063.16;;;16.97;82.78
71126;BME280;58785;55.566;38.058;2023-08-17T01:20:31;101063.16;;;16.97;82.67
71126;BME280;58785;55.566;38.058;2023-08-17T01:23:11;101046.81;;;16.90;82.79
71126;BME280;58785;55.566;38.058;2023-08-17T01:25:36;101062.50;;;16.94;82.67
71126;BME280;58785;55.566;38.058;2023-08-17T01:28:03;101052.88;;;16.92;83.00
71126;BME280;58785;55.566;38.058;2023-08-17T01:33:56;101058.25;;;16.92;82.78
71126;BME280;58785;55.566;38.058;2023-08-17T01:36:34;101062.31;;;16.88;82.72
71126;BME280;58785;55.566;38.058;2023-08-17T01:39:02;101062.31;;;16.88;83.09
71126;BME280;58785;55.566;38.058;2023-08-17T01:41:30;101054.56;;;16.85;82.93
71126;BME280;58785;55.566;38.058;2023-08-17T01:43:57;101059.94;;;16.85;83.07
71126;BME280;58785;55.566;38.058;2023-08-17T01:46:27;101054.03;;;16.81;83.00
71126;BME280;58785;55.566;38.058;2023-08-17T01:48:54;101042.91;;;16.76;83.08
71126;BME280;58785;55.566;38.058;2023-08-17T01:51:21;101057.41;;;16.83;83.23
71126;BME280;58785;55.566;38.058;2023-08-17T01:53:47;101056.91;;;16.80;83.29
71126;BME280;58785;55.566;38.058;2023-08-17T01:56:13;101055.38;;;16.77;82.88
71126;BME280;58785;55.566;38.058;2023-08-17T01:58:39;101053.69;;;16.76;83.06
71126;BME280;58785;55.566;38.058;2023-08-17T02:01:05;101057.22;;;16.77;83.06
71126;BME280;58785;55.566;38.058;2023-08-17T02:03:30;101064.47;;;16.76;82.89
71126;BME280;58785;55.566;38.058;2023-08-17T02:05:57;101060.41;;;16.72;82.91
71126;BME280;58785;55.566;38.058;2023-08-17T02:08:23;101054.50;;;16.69;82.90
71126;BME280;58785;55.566;38.058;2023-08-17T02:10:49;101062.41;;;16.70;82.95
71126;BME280;58785;55.566;38.058;2023-08-17T02:13:15;101062.59;;;16.69;82.65
71126;BME280;58785;55.566;38.058;2023-08-17T02:15:41;101060.75;;;16.69;82.79
71126;BME280;58785;55.566;38.058;2023-08-17T02:18:07;101060.03;;;16.67;82.61
71126;BME280;58785;55.566;38.058;2023-08-17T02:20:33;101071.19;;;16.72;82.50
71126;BME280;58785;55.566;38.058;2023-08-17T02:22:59;101066.81;;;16.71;82.77
71126;BME280;58785;55.566;38.058;2023-08-17T02:25:25;101064.78;;;16.73;82.66
71126;BME280;58785;55.566;38.058;2023-08-17T02:27:52;101073.56;;;16.75;82.61
71126;BME280;58785;55.566;38.058;2023-08-17T02:30:18;101082.31;;;16.77;82.72
71126;BME280;58785;55.566;38.058;2023-08-17T02:32:44;101075.91;;;16.78;82.50
71126;BME280;58785;55.566;38.058;2023-08-17T02:35:09;101079.97;;;16.82;82.46
71126;BME280;58785;55.566;38.058;2023-08-17T02:37:35;101073.72;;;16.82;82.67
71126;BME280;58785;55.566;38.058;2023-08-17T02:40:02;101078.63;;;16.86;82.63
71126;BME280;58785;55.566;38.058;2023-08-17T02:42:30;101079.16;;;16.90;82.52
71126;BME280;58785;55.566;38.058;2023-08-17T02:44:55;101075.13;;;16.94;82.77
71126;BME280;58785;55.566;38.058;2023-08-17T02:47:21;101076.97;;;17.02;82.83
71126;BME280;58785;55.566;38.058;2023-08-17T02:49:47;101078.19;;;17.07;82.76
71126;BME280;58785;55.566;38.058;2023-08-17T02:52:15;101075.66;;;17.14;82.69
71126;BME280;58785;55.566;38.058;2023-08-17T02:54:40;101067.75;;;17.29;82.83
71126;BME280;58785;55.566;38.058;2023-08-17T02:57:06;101075.66;;;17.63;81.77
71126;BME280;58785;55.566;38.058;2023-08-17T02:59:32;101079.03;;;17.97;81.59
71126;BME280;58785;55.566;38.058;2023-08-17T03:01:57;101084.34;;;18.30;81.43
71126;BME280;58785;55.566;38.058;2023-08-17T03:04:23;101086.59;;;18.57;80.95
71126;BME280;58785;55.566;38.058;2023-08-17T03:06:49;101087.34;;;18.82;80.56
71126;BME280;58785;55.566;38.058;2023-08-17T03:09:15;101077.28;;;18.99;80.00
71126;BME280;58785;55.566;38.058;2023-08-17T03:11:41;101081.69;;;19.23;79.88
71126;BME280;58785;55.566;38.058;2023-08-17T03:14:06;101093.34;;;19.46;79.31
71126;BME280;58785;55.566;38.058;2023-08-17T03:16:32;101081.22;;;19.65;79.00
71126;BME280;58785;55.566;38.058;2023-08-17T03:18:58;101079.84;;;19.84;78.80
71126;BME280;58785;55.566;38.058;2023-08-17T03:21:23;101080.13;;;20.04;78.19
71126;BME280;58785;55.566;38.058;2023-08-17T03:23:49;101077.06;;;20.22;78.00
71126;BME280;58785;55.566;38.058;2023-08-17T03:26:15;101085.16;;;20.45;77.17
71126;BME280;58785;55.566;38.058;2023-08-17T03:28:41;101085.97;;;20.60;76.71
71126;BME280;58785;55.566;38.058;2023-08-17T03:31:07;101083.50;;;20.80;75.96
71126;BME280;58785;55.566;38.058;2023-08-17T03:33:36;101083.91;;;20.98;75.45
71126;BME280;58785;55.566;38.058;2023-08-17T03:36:03;101083.81;;;21.06;74.84
71126;BME280;58785;55.566;38.058;2023-08-17T03:38:29;101089.16;;;21.21;74.42
71126;BME280;58785;55.566;38.058;2023-08-17T03:40:54;101090.22;;;21.41;73.61
71126;BME280;58785;55.566;38.058;2023-08-17T03:43:20;101094.16;;;21.60;73.20
71126;BME280;58785;55.566;38.058;2023-08-17T03:45:46;101082.19;;;21.76;72.87
71126;BME280;58785;55.566;38.058;2023-08-17T03:48:12;101089.41;;;21.90;72.48
71126;BME280;58785;55.566;38.058;2023-08-17T03:53:04;101092.03;;;22.05;71.24
71126;BME280;58785;55.566;38.058;2023-08-17T03:55:30;101088.72;;;22.09;70.90
71126;BME280;58785;55.566;38.058;2023-08-17T03:57:56;101092.97;;;22.19;70.50
71126;BME280;58785;55.566;38.058;2023-08-17T04:00:21;101095.75;;;22.25;69.85
71126;BME280;58785;55.566;38.058;2023-08-17T04:02:47;101083.84;;;22.33;69.92
71126;BME280;58785;55.566;38.058;2023-08-17T04:05:13;101092.69;;;22.42;69.41
71126;BME280;58785;55.566;38.058;2023-08-17T04:07:38;101090.84;;;22.49;69.06
71126;BME280;58785;55.566;38.058;2023-08-17T04:10:08;101087.97;;;22.57;68.89
71126;BME280;58785;55.566;38.058;2023-08-17T04:12:34;101094.50;;;22.69;68.41
71126;BME280;58785;55.566;38.058;2023-08-17T04:15:00;101089.31;;;22.81;67.85
71126;BME280;58785;55.566;38.058;2023-08-17T04:17:26;101095.44;;;22.89;67.45
71126;BME280;58785;55.566;38.058;2023-08-17T04:19:51;101096.31;;;23.03;67.54
71126;BME280;58785;55.566;38.058;2023-08-17T04:22:18;101102.59;;;23.10;67.15
71126;BME280;58785;55.566;38.058;2023-08-17T04:24:43;101101.78;;;23.16;66.81
71126;BME280;58785;55.566;38.058;2023-08-17T04:27:09;101090.31;;;23.28;66.88
71126;BME280;58785;55.566;38.058;2023-08-17T04:29:36;101096.59;;;23.41;66.17
71126;BME280;58785;55.566;38.058;2023-08-17T04:32:01;101100.59;;;23.45;65.83
71126;BME280;58785;55.566;38.058;2023-08-17T04:34:27;101104.19;;;23.59;65.83
71126;BME280;58785;55.566;38.058;2023-08-17T04:36:53;101107.53;;;23.74;65.25
71126;BME280;58785;55.566;38.058;2023-08-17T04:39:18;101097.06;;;23.91;65.02
71126;BME280;58785;55.566;38.058;2023-08-17T04:41:44;101095.78;;;24.00;65.10
71126;BME280;58785;55.566;38.058;2023-08-17T04:44:10;101093.03;;;24.14;64.46
71126;BME280;58785;55.566;38.058;2023-08-17T04:46:35;101092.41;;;24.18;64.40
71126;BME280;58785;55.566;38.058;2023-08-17T04:49:01;101093.25;;;24.25;64.08
71126;BME280;58785;55.566;38.058;2023-08-17T04:51:29;101095.31;;;24.30;63.74
71126;BME280;58785;55.566;38.058;2023-08-17T04:53:54;101096.78;;;24.46;64.00
71126;BME280;58785;55.566;38.058;2023-08-17T04:56:20;101092.34;;;24.58;63.22
71126;BME280;58785;55.566;38.058;2023-08-17T04:58:46;101098.16;;;24.68;62.98
71126;BME280;58785;55.566;38.058;2023-08-17T05:01:12;101102.97;;;24.73;62.59
71126;BME280;58785;55.566;38.058;2023-08-17T05:03:37;101098.56;;;24.72;62.31
71126;BME280;58785;55.566;38.058;2023-08-17T05:06:03;101091.81;;;24.74;62.35
71126;BME280;58785;55.566;38.058;2023-08-17T05:08:29;101096.19;;;24.88;62.33
71126;BME280;58785;55.566;38.058;2023-08-17T05:10:55;101100.31;;;25.04;61.98
71126;BME280;58785;55.566;38.058;2023-08-17T05:13:20;101093.59;;;25.07;61.59
71126;BME280;58785;55.566;38.058;2023-08-17T05:15:46;101096.84;;;25.22;61.16
71126;BME280;58785;55.566;38.058;2023-08-17T05:18:12;101104.34;;;25.33;60.90
71126;BME280;58785;55.566;38.058;2023-08-17T05:20:37;101094.66;;;25.37;60.88
71126;BME280;58785;55.566;38.058;2023-08-17T05:23:03;101094.75;;;25.56;60.39
71126;BME280;58785;55.566;38.058;2023-08-17T05:25:29;101103.47;;;25.71;60.45
71126;BME280;58785;55.566;38.058;2023-08-17T05:27:55;101100.78;;;25.89;59.37
71126;BME280;58785;55.566;38.058;2023-08-17T05:30:21;101098.94;;;26.08;59.60
71126;BME280;58785;55.566;38.058;2023-08-17T05:32:47;101098.97;;;26.26;59.06
71126;BME280;58785;55.566;38.058;2023-08-17T05:35:13;101102.41;;;26.40;58.82
71126;BME280;58785;55.566;38.058;2023-08-17T05:37:39;101101.94;;;26.61;58.06
71126;BME280;58785;55.566;38.058;2023-08-17T05:40:05;101101.56;;;26.76;58.37
71126;BME280;58785;55.566;38.058;2023-08-17T05:42:31;101103.53;;;26.87;57.89
71126;BME280;58785;55.566;38.058;2023-08-17T05:44:57;101099.59;;;26.95;57.36
71126;BME280;58785;55.566;38.058;2023-08-17T05:47:23;101107.94;;;27.07;57.17
71126;BME280;58785;55.566;38.058;2023-08-17T05:49:50;101106.31;;;27.17;56.57
71126;BME280;58785;55.566;38.058;2023-08-17T05:52:15;101107.81;;;27.13;56.31
71126;BME280;58785;55.566;38.058;2023-08-17T05:54:41;101105.63;;;27.04;56.35
71126;BME280;58785;55.566;38.058;2023-08-17T05:57:08;101107.53;;;27.03;56.27
71126;BME280;58785;55.566;38.058;2023-08-17T05:59:34;101107.97;;;27.18;56.12
71126;BME280;58785;55.566;38.058;2023-08-17T06:02:03;101115.16;;;27.31;55.45
71126;BME280;58785;55.566;38.058;2023-08-17T06:04:30;101113.41;;;27.37;55.31
71126;BME280;58785;55.566;38.058;2023-08-17T06:06:56;101106.66;;;27.63;55.14
71126;BME280;58785;55.566;38.058;2023-08-17T06:09:21;101103.59;;;27.71;55.02
71126;BME280;58785;55.566;38.058;2023-08-17T06:11:50;101095.09;;;27.61;55.03
71126;BME280;58785;55.566;38.058;2023-08-17T06:14:22;101101.84;;;27.76;54.77
71126;BME280;58785;55.566;38.058;2023-08-17T06:16:56;101099.44;;;27.80;54.69
71126;BME280;58785;55.566;38.058;2023-08-17T06:19:22;101112.66;;;27.83;54.53
71126;BME280;58785;55.566;38.058;2023-08-17T06:21:47;101112.66;;;27.95;54.67
71126;BME280;58785;55.566;38.058;2023-08-17T06:24:13;101104.81;;;27.87;54.20
71126;BME280;58785;55.566;38.058;2023-08-17T06:26:39;101108.75;;;27.91;53.61
71126;BME280;58785;55.566;38.058;2023-08-17T06:29:05;101106.00;;;27.91;53.28
71126;BME280;58785;55.566;38.058;2023-08-17T06:31:31;101101.50;;;27.96;53.27
71126;BME280;58785;55.566;38.058;2023-08-17T06:33:57;101101.00;;;27.99;52.96
71126;BME280;58785;55.566;38.058;2023-08-17T06:36:22;101084.03;;;28.14;53.38
71126;BME280;58785;55.566;38.058;2023-08-17T06:38:48;101102.31;;;28.32;52.67
71126;BME280;58785;55.566;38.058;2023-08-17T06:41:14;101077.13;;;28.35;52.20
71126;BME280;58785;55.566;38.058;2023-08-17T06:43:39;101084.16;;;28.43;52.23
71126;BME280;58785;55.566;38.058;2023-08-17T06:46:05;101095.50;;;28.46;50.93
71126;BME280;58785;55.566;38.058;2023-08-17T06:48:31;101091.84;;;28.29;50.67
71126;BME280;58785;55.566;38.058;2023-08-17T06:50:57;101086.19;;;28.12;50.50
71126;BME280;58785;55.566;38.058;2023-08-17T06:53:23;101098.00;;;28.01;50.04
71126;BME280;58785;55.566;38.058;2023-08-17T06:55:49;101094.69;;;27.87;49.74
71126;BME280;58785;55.566;38.058;2023-08-17T06:58:15;101095.03;;;27.91;50.05
71126;BME280;58785;55.566;38.058;2023-08-17T07:00:40;101097.63;;;27.86;49.44
71126;BME280;58785;55.566;38.058;2023-08-17T07:03:06;101098.38;;;27.93;49.85
71126;BME280;58785;55.566;38.058;2023-08-17T07:05:32;101093.59;;;28.00;49.32
71126;BME280;58785;55.566;38.058;2023-08-17T07:07:58;101099.69;;;28.02;48.96
71126;BME280;58785;55.566;38.058;2023-08-17T07:10:25;101093.25;;;27.96;48.66
71126;BME280;58785;55.566;38.058;2023-08-17T07:12:51;101090.38;;;27.80;48.62
71126;BME280;58785;55.566;38.058;2023-08-17T07:15:16;101096.22;;;27.71;48.28
71126;BME280;58785;55.566;38.058;2023-08-17T07:17:42;101098.72;;;27.73;48.73
71126;BME280;58785;55.566;38.058;2023-08-17T07:20:08;101093.81;;;27.75;48.10
71126;BME280;58785;55.566;38.058;2023-08-17T07:22:35;101089.72;;;27.54;48.40
71126;BME280;58785;55.566;38.058;2023-08-17T07:25:00;101101.38;;;27.49;48.18
71126;BME280;58785;55.566;38.058;2023-08-17T07:27:26;101095.91;;;27.49;47.82
71126;BME280;58785;55.566;38.058;2023-08-17T07:29:52;101092.06;;;27.39;47.92
71126;BME280;58785;55.566;38.058;2023-08-17T07:32:21;101092.06;;;27.39;48.66
71126;BME280;58785;55.566;38.058;2023-08-17T07:34:47;101091.75;;;27.47;47.96
71126;BME280;58785;55.566;38.058;2023-08-17T07:37:13;101088.75;;;27.48;47.78
71126;BME280;58785;55.566;38.058;2023-08-17T07:39:39;101087.78;;;27.43;47.43
71126;BME280;58785;55.566;38.058;2023-08-17T07:42:04;101085.88;;;27.43;47.77
71126;BME280;58785;55.566;38.058;2023-08-17T07:44:30;101087.44;;;27.39;47.79
71126;BME280;58785;55.566;38.058;2023-08-17T07:47:00;101085.28;;;27.41;47.73
71126;BME280;58785;55.566;38.058;2023-08-17T07:49:28;101084.63;;;27.58;47.98
71126;BME280;58785;55.566;38.058;2023-08-17T07:51:54;101083.28;;;27.60;47.97
71126;BME280;58785;55.566;38.058;2023-08-17T07:54:20;101079.84;;;27.65;48.07
71126;BME280;58785;55.566;38.058;2023-08-17T07:56:45;101079.84;;;27.65;47.73
71126;BME280;58785;55.566;38.058;2023-08-17T07:59:11;101086.63;;;27.62;46.94
71126;BME280;58785;55.566;38.058;2023-08-17T08:01:36;101082.56;;;27.65;46.48
71126;BME280;58785;55.566;38.058;2023-08-17T08:04:02;101089.06;;;27.70;46.24
71126;BME280;58785;55.566;38.058;2023-08-17T08:06:28;101085.25;;;27.71;46.43
71126;BME280;58785;55.566;38.058;2023-08-17T08:08:54;101081.31;;;27.79;46.31
71126;BME280;58785;55.566;38.058;2023-08-17T08:11:21;101079.41;;;27.91;46.09
71126;BME280;58785;55.566;38.058;2023-08-17T08:13:47;101069.28;;;28.03;45.97
71126;BME280;58785;55.566;38.058;2023-08-17T08:16:13;101075.47;;;28.11;46.05
71126;BME280;58785;55.566;38.058;2023-08-17T08:18:38;101070.22;;;28.09;45.83
71126;BME280;58785;55.566;38.058;2023-08-17T08:21:04;101065.09;;;28.01;46.18
71126;BME280;58785;55.566;38.058;2023-08-17T08:23:30;101067.28;;;27.87;46.38
71126;BME280;58785;55.566;38.058;2023-08-17T08:25:55;101061.41;;;27.72;46.07
71126;BME280;58785;55.566;38.058;2023-08-17T08:28:24;101065.09;;;27.66;46.27
71126;BME280;58785;55.566;38.058;2023-08-17T08:30:51;101061.31;;;27.67;46.63
71126;BME280;58785;55.566;38.058;2023-08-17T08:33:17;101064.28;;;27.77;46.60
71126;BME280;58785;55.566;38.058;2023-08-17T08:35:42;101058.78;;;27.65;46.53
71126;BME280;58785;55.566;38.058;2023-08-17T08:38:08;101061.50;;;27.65;46.45
71126;BME280;58785;55.566;38.058;2023-08-17T08:40:37;101060.66;;;27.65;46.27
71126;BME280;58785;55.566;38.058;2023-08-17T08:43:03;101060.88;;;27.63;46.12
71126;BME280;58785;55.566;38.058;2023-08-17T08:45:29;101066.13;;;27.65;45.86
71126;BME280;58785;55.566;38.058;2023-08-17T08:47:57;101058.38;;;27.62;45.92
71126;BME280;58785;55.566;38.058;2023-08-17T08:50:26;101059.75;;;27.71;46.49
71126;BME280;58785;55.566;38.058;2023-08-17T08:52:59;101058.66;;;27.72;45.68
71126;BME280;58785;55.566;38.058;2023-08-17T08:55:29;101059.59;;;27.66;45.75
71126;BME280;58785;55.566;38.058;2023-08-17T08:57:56;101050.09;;;27.68;45.53
71126;BME280;58785;55.566;38.058;2023-08-17T09:00:22;101061.75;;;27.75;45.77
71126;BME280;58785;55.566;38.058;2023-08-17T09:02:48;101056.50;;;27.74;45.28
71126;BME280;58785;55.566;38.058;2023-08-17T09:05:15;101056.41;;;27.69;45.80
71126;BME280;58785;55.566;38.058;2023-08-17T09:07:42;101060.78;;;27.58;45.95
71126;BME280;58785;55.566;38.058;2023-08-17T09:10:09;101050.06;;;27.57;45.98
71126;BME280;58785;55.566;38.058;2023-08-17T09:12:35;101054.34;;;27.64;46.05
71126;BME280;58785;55.566;38.058;2023-08-17T09:15:01;101046.94;;;27.65;45.78
71126;BME280;58785;55.566;38.058;2023-08-17T09:17:28;101044.56;;;27.57;45.56
71126;BME280;58785;55.566;38.058;2023-08-17T09:19:54;101041.00;;;27.56;45.68
71126;BME280;58785;55.566;38.058;2023-08-17T09:22:42;101040.75;;;27.58;46.07
71126;BME280;58785;55.566;38.058;2023-08-17T09:25:10;101044.44;;;27.63;46.38
71126;BME280;58785;55.566;38.058;2023-08-17T09:27:37;101043.53;;;27.69;45.95
71126;BME280;58785;55.566;38.058;2023-08-17T09:30:10;101033.25;;;27.65;45.26
71126;BME280;58785;55.566;38.058;2023-08-17T09:32:36;101034.44;;;27.57;45.70
71126;BME280;58785;55.566;38.058;2023-08-17T09:35:03;101036.94;;;27.59;46.04
71126;BME280;58785;55.566;38.058;2023-08-17T09:37:32;101033.47;;;27.63;45.85
71126;BME280;58785;55.566;38.058;2023-08-17T09:39:58;101036.75;;;27.72;45.98
71126;BME280;58785;55.566;38.058;2023-08-17T09:42:24;101026.38;;;27.74;45.71
71126;BME280;58785;55.566;38.058;2023-08-17T09:44:52;101026.59;;;27.72;46.15
71126;BME280;58785;55.566;38.058;2023-08-17T09:47:21;101017.91;;;27.75;46.28
71126;BME280;58785;55.566;38.058;2023-08-17T09:49:49;101030.06;;;27.80;46.54
71126;BME280;58785;55.566;38.058;2023-08-17T09:52:15;101026.59;;;27.72;46.05
71126;BME280;58785;55.566;38.058;2023-08-17T09:54:41;101023.75;;;27.67;45.96
71126;BME280;58785;55.566;38.058;2023-08-17T09:57:07;101025.25;;;27.63;45.97
71126;BME280;58785;55.566;38.058;2023-08-17T09:59:34;101027.66;;;27.60;45.91
71126;BME280;58785;55.566;38.058;2023-08-17T10:02:00;101024.06;;;27.59;46.18
71126;BME280;58785;55.566;38.058;2023-08-17T10:04:28;101025.16;;;27.58;46.45
71126;BME280;58785;55.566;38.058;2023-08-17T10:07:03;101028.47;;;27.60;46.52
71126;BME280;58785;55.566;38.058;2023-08-17T10:09:39;101023.84;;;27.61;46.95
71126;BME280;58785;55.566;38.058;2023-08-17T10:12:10;101027.75;;;27.53;46.89
71126;BME280;58785;55.566;38.058;2023-08-17T10:14:41;101030.00;;;27.44;46.52
71126;BME280;58785;55.566;38.058;2023-08-17T10:17:14;101023.00;;;27.37;46.09
71126;BME280;58785;55.566;38.058;2023-08-17T10:19:53;101024.91;;;27.36;46.25
71126;BME280;58785;55.566;38.058;2023-08-17T10:22:26;101022.16;;;27.36;46.23
71126;BME280;58785;55.566;38.058;2023-08-17T10:24:57;101022.28;;;27.41;45.92
71126;BME280;58785;55.566;38.058;2023-08-17T10:27:26;101021.19;;;27.42;45.58
71126;BME280;58785;55.566;38.058;2023-08-17T10:29:52;101024.78;;;27.43;46.23
71126;BME280;58785;55.566;38.058;2023-08-17T10:32:21;101022.84;;;27.43;46.27
71126;BME280;58785;55.566;38.058;2023-08-17T10:34:48;101015.03;;;27.47;46.56
71126;BME280;58785;55.566;38.058;2023-08-17T10:37:15;101014.06;;;27.53;46.55
71126;BME280;58785;55.566;38.058;2023-08-17T10:39:48;101014.66;;;27.55;46.46
71126;BME280;58785;55.566;38.058;2023-08-17T10:42:14;101014.78;;;27.60;46.43
71126;BME280;58785;55.566;38.058;2023-08-17T10:47:26;101010.88;;;27.56;46.58
71126;BME280;58785;55.566;38.058;2023-08-17T10:50:03;101014.88;;;27.54;46.74
71126;BME280;58785;55.566;38.058;2023-08-17T10:52:33;101005.97;;;27.46;46.39
71126;BME280;58785;55.566;38.058;2023-08-17T10:55:05;101003.69;;;27.43;46.36
71126;BME280;58785;55.566;38.058;2023-08-17T11:00:23;100998.44;;;27.42;45.44
71126;BME280;58785;55.566;38.058;2023-08-17T11:02:57;101007.38;;;27.37;46.07
71126;BME280;58785;55.566;38.058;2023-08-17T11:05:48;101002.75;;;27.38;46.27
71126;BME280;58785;55.566;38.058;2023-08-17T11:08:33;100997.03;;;27.39;46.51
71126;BME280;58785;55.566;38.058;2023-08-17T11:11:03;100996.78;;;27.41;46.45
71126;BME280;58785;55.566;38.058;2023-08-17T11:13:31;100992.72;;;27.43;45.89
71126;BME280;58785;55.566;38.058;2023-08-17T11:15:58;100992.13;;;27.41;46.04
71126;BME280;58785;55.566;38.058;2023-08-17T11:18:24;100990.47;;;27.40;45.64
71126;BME280;58785;55.566;38.058;2023-08-17T11:20:50;100983.56;;;27.38;45.36
71126;BME280;58785;55.566;38.058;2023-08-17T11:23:17;100983.44;;;27.44;45.80
71126;BME280;58785;55.566;38.058;2023-08-17T11:25:43;100982.72;;;27.49;45.53
71126;BME280;58785;55.566;38.058;2023-08-17T11:28:09;100981.06;;;27.48;45.60
71126;BME280;58785;55.566;38.058;2023-08-17T11:30:36;100981.41;;;27.52;45.63
71126;BME280;58785;55.566;38.058;2023-08-17T11:33:05;100973.94;;;27.47;45.74
71126;BME280;58785;55.566;38.058;2023-08-17T11:35:32;100980.25;;;27.47;46.15
71126;BME280;58785;55.566;38.058;2023-08-17T11:37:58;100967.13;;;27.49;46.48
71126;BME280;58785;55.566;38.058;2023-08-17T11:40:25;100973.44;;;27.50;46.85
71126;BME280;58785;55.566;38.058;2023-08-17T11:42:51;100972.03;;;27.47;46.61
71126;BME280;58785;55.566;38.058;2023-08-17T11:45:18;100964.50;;;27.43;47.04
71126;BME280;58785;55.566;38.058;2023-08-17T11:47:44;100969.72;;;27.44;46.79
71126;BME280;58785;55.566;38.058;2023-08-17T11:50:13;100964.38;;;27.38;46.85
71126;BME280;58785;55.566;38.058;2023-08-17T11:52:40;100960.44;;;27.34;46.60
71126;BME280;58785;55.566;38.058;2023-08-17T11:55:07;100958.53;;;27.34;46.33
71126;BME280;58785;55.566;38.058;2023-08-17T11:57:36;100955.44;;;27.31;46.02
71126;BME280;58785;55.566;38.058;2023-08-17T12:00:03;100954.59;;;27.30;46.23
71126;BME280;58785;55.566;38.058;2023-08-17T12:02:33;100952.13;;;27.29;46.55
71126;BME280;58785;55.566;38.058;2023-08-17T12:05:03;100953.44;;;27.26;46.40
71126;BME280;58785;55.566;38.058;2023-08-17T12:07:33;100951.75;;;27.25;46.52
71126;BME280;58785;55.566;38.058;2023-08-17T12:09:58;100958.28;;;27.24;46.65
71126;BME280;58785;55.566;38.058;2023-08-17T12:12:24;100951.53;;;27.27;46.28
71126;BME280;58785;55.566;38.058;2023-08-17T12:14:50;100946.88;;;27.27;46.50
71126;BME280;58785;55.566;38.058;2023-08-17T12:17:17;100941.16;;;27.29;46.36
71126;BME280;58785;55.566;38.058;2023-08-17T12:19:43;100940.09;;;27.30;46.19
71126;BME280;58785;55.566;38.058;2023-08-17T12:22:10;100934.13;;;27.33;46.27
71126;BME280;58785;55.566;38.058;2023-08-17T12:24:38;100945.22;;;27.38;46.26
71126;BME280;58785;55.566;38.058;2023-08-17T12:27:07;100945.81;;;27.40;46.43
71126;BME280;58785;55.566;38.058;2023-08-17T12:29:33;100941.63;;;27.37;46.30
71126;BME280;58785;55.566;38.058;2023-08-17T12:32:01;100934.50;;;27.36;46.36
71126;BME280;58785;55.566;38.058;2023-08-17T12:34:27;100934.25;;;27.38;46.05
71126;BME280;58785;55.566;38.058;2023-08-17T12:36:52;100928.78;;;27.38;46.22
71126;BME280;58785;55.566;38.058;2023-08-17T12:39:18;100927.47;;;27.40;46.33
71126;BME280;58785;55.566;38.058;2023-08-17T12:41:44;100923.88;;;27.40;46.32
71126;BME280;58785;55.566;38.058;2023-08-17T12:44:10;100919.25;;;27.40;46.34
71126;BME280;58785;55.566;38.058;2023-08-17T12:46:41;100917.81;;;27.38;46.67
71126;BME280;58785;55.566;38.058;2023-08-17T12:49:08;100917.91;;;27.43;47.30
71126;BME280;58785;55.566;38.058;2023-08-17T12:51:33;100909.13;;;27.41;47.36
71126;BME280;58785;55.566;38.058;2023-08-17T12:53:59;100920.91;;;27.41;47.67